Time;durP1;ratioP1;P1;durP2;ratioP2;P2;SDS_P1;SDS_P2;PMS_P1;PMS_P2;Temp;Humidity;BMP_temperature;BMP_pressure;BME280_temperature;BME280_humidity;BME280_pressure;Samples;Min_cycle;Max_cycle;Signal;HPM_P1;HPM_P2
2023/11/02 10:25:56;;;;;;;2.67;1.40;;;14.20;99.90;;;14.59;71.67;98578.22;4709270;30;1333692;-67
2023/11/02 10:28:25;;;;;;;3.40;1.70;;;14.30;99.90;;;14.72;71.04;98583.00;4752628;30;20631;-68
2023/11/02 10:30:59;;;;;;;1.73;1.10;;;14.40;99.90;;;14.82;71.79;98593.00;4746991;30;20450;-66
2023/11/02 10:33:30;;;;;;;8.77;4.90;;;14.40;99.90;;;14.82;70.75;98595.72;4730673;30;20437;-66
2023/11/02 10:35:59;;;;;;;1.77;1.60;;;14.50;99.80;;;14.96;69.52;98604.84;4738086;30;20424;-65
2023/11/02 10:38:29;;;;;;;1.80;0.80;;;14.50;99.00;;;14.75;69.79;98584.38;4736640;30;20504;-66
2023/11/02 10:40:59;;;;;;;1.87;1.57;;;14.50;98.50;;;15.07;70.33;98576.44;4736523;30;20425;-66
2023/11/02 10:43:30;;;;;;;1.50;0.83;;;14.60;99.30;;;15.03;68.58;98572.66;4736723;30;20813;-66
2023/11/02 10:45:59;;;;;;;2.77;1.10;;;14.60;98.00;;;14.77;68.53;98571.25;4736260;30;20421;-66
2023/11/02 10:48:36;;;;;;;1.30;0.90;;;14.50;97.10;;;14.63;69.46;98559.41;4736180;30;20508;-66
2023/11/02 10:51:12;;;;;;;2.60;1.20;;;14.40;97.60;;;14.41;69.50;98532.66;4736889;30;20555;-67
2023/11/02 10:54:00;;;;;;;2.57;0.90;;;14.20;97.40;;;14.54;68.33;98532.00;4736384;30;20977;-68
2023/11/02 10:56:42;;;;;;;2.80;2.17;;;14.20;96.90;;;14.69;68.57;98517.44;4734653;30;20425;-67
2023/11/02 10:59:12;;;;;;;6.40;1.40;;;14.30;97.10;;;14.58;68.62;98521.34;4733092;30;20446;-67
2023/11/02 11:01:42;;;;;;;1.53;1.10;;;14.30;96.70;;;14.68;68.46;98513.09;4736275;30;20482;-67
2023/11/02 11:04:12;;;;;;;1.80;1.37;;;14.30;97.00;;;14.72;67.88;98503.25;4735707;30;20453;-66
2023/11/02 11:06:43;;;;;;;1.10;1.00;;;14.40;96.50;;;14.74;67.40;98526.38;4735868;30;20456;-66
2023/11/02 11:09:14;;;;;;;2.10;1.20;;;14.40;96.00;;;14.60;67.38;98530.06;4737995;30;20810;-67
2023/11/02 11:11:44;;;;;;;4.07;1.40;;;14.40;95.30;;;14.51;67.44;98510.81;4735850;30;20516;-67
2023/11/02 11:14:14;;;;;;;2.30;1.70;;;14.30;95.10;;;14.50;68.44;98502.91;4737900;30;21101;-67
2023/11/02 11:16:45;;;;;;;3.13;1.00;;;14.30;95.90;;;14.47;68.73;98503.50;4735745;30;20447;-66
2023/11/02 11:19:15;;;;;;;1.57;0.97;;;14.20;96.00;;;14.49;68.20;98493.13;4734538;30;20439;-66
2023/11/02 11:21:44;;;;;;;4.53;0.93;;;14.20;95.70;;;14.53;67.72;98475.13;4735257;30;20413;-68
2023/11/02 11:24:16;;;;;;;1.73;1.10;;;14.20;95.60;;;14.63;67.98;98483.19;4731822;30;20481;-68
2023/11/02 11:26:55;;;;;;;1.43;0.93;;;14.30;95.90;;;14.78;66.99;98483.06;4735799;30;20458;-67
2023/11/02 11:29:37;;;;;;;1.33;1.00;;;14.40;95.40;;;14.71;66.49;98475.25;4735768;30;20455;-66
2023/11/02 11:32:08;;;;;;;1.30;0.90;;;14.40;94.40;;;14.78;66.21;98469.44;4737874;30;20452;-67
2023/11/02 11:35:09;;;;;;;3.20;0.73;;;14.50;94.50;;;14.75;65.84;98457.25;4738947;30;20467;-66
2023/11/02 11:37:41;;;;;;;2.20;1.13;;;14.50;93.80;;;14.62;65.68;98443.50;4737925;30;20883;-67
2023/11/02 11:40:34;;;;;;;2.33;1.30;;;14.40;93.20;;;14.75;66.67;98431.94;4732179;30;20471;-67
2023/11/02 11:43:12;;;;;;;1.73;1.17;;;14.40;94.00;;;14.64;66.09;98424.97;4734315;30;20457;-67
2023/11/02 11:45:51;;;;;;;2.67;1.40;;;14.40;93.50;;;14.72;66.16;98414.25;4734555;30;20446;-67
2023/11/02 11:48:38;;;;;;;9.13;1.40;;;14.40;93.70;;;14.73;65.42;98409.63;4734664;30;20808;-67
2023/11/02 11:51:42;;;;;;;1.77;1.10;;;14.40;92.90;;;14.76;65.78;98425.38;4735600;30;20451;-67
2023/11/02 11:54:14;;;;;;;1.40;1.10;;;14.50;93.30;;;14.70;64.91;98410.19;4734653;30;20977;-69
2023/11/02 11:56:45;;;;;;;1.10;0.90;;;14.50;92.40;;;14.88;64.69;98419.53;4732084;30;20878;-66
2023/11/02 11:59:17;;;;;;;1.50;1.00;;;14.50;92.40;;;14.98;62.95;98413.97;4736185;30;20550;-68
2023/11/02 12:01:46;;;;;;;4.10;1.07;;;14.70;90.80;;;15.42;62.71;98411.75;4735952;30;20960;-67
2023/11/02 12:04:49;;;;;;;1.40;0.80;;;;;;;15.52;62.52;98410.84;4735264;30;20497;-68
2023/11/02 12:07:22;;;;;;;1.50;0.80;;;;;;;15.67;61.87;98428.88;4735130;30;20465;-68
2023/11/02 12:09:51;;;;;;;3.73;1.43;;;15.30;88.80;;;15.67;61.20;98416.06;4735698;30;20434;-68
2023/11/02 12:12:20;;;;;;;1.03;0.80;;;15.30;87.70;;;15.51;61.58;98420.13;4735177;30;20460;-68
2023/11/02 12:14:50;;;;;;;1.87;1.10;;;15.20;87.10;;;15.22;62.19;98407.38;4731084;30;20768;-67
2023/11/02 12:17:20;;;;;;;5.00;1.43;;;15.10;86.50;;;15.22;62.44;98399.22;4735128;30;20908;-68
2023/11/02 12:19:49;;;;;;;2.10;1.47;;;15.00;86.80;;;15.05;63.03;98389.94;4735483;30;20505;-68
2023/11/02 12:22:18;;;;;;;2.17;0.90;;;14.90;87.10;;;15.00;63.54;98370.94;4735527;30;20406;-67
2023/11/02 12:24:56;;;;;;;1.40;1.30;;;14.80;88.10;;;14.96;64.42;98378.84;4734840;30;20940;-67
2023/11/02 12:27:25;;;;;;;1.47;1.13;;;14.70;89.50;;;15.08;64.95;98383.88;4735757;30;20863;-67
2023/11/02 12:29:59;;;;;;;1.97;1.20;;;14.80;90.70;;;14.98;64.80;98387.53;4734697;30;20412;-67
2023/11/02 12:32:28;;;;;;;1.87;1.00;;;14.80;90.40;;;14.89;64.79;98397.47;4734845;30;20449;-67
2023/11/02 12:34:56;;;;;;;1.00;0.80;;;14.70;90.40;;;14.95;65.71;98385.41;4736522;30;20425;-66
2023/11/02 12:37:26;;;;;;;2.57;1.93;;;14.70;91.10;;;14.95;64.77;98379.16;4733862;30;20435;-67
2023/11/02 12:40:00;;;;;;;5.23;1.03;;;14.70;90.70;;;14.90;65.82;98385.47;4735564;30;20428;-68
2023/11/02 12:42:29;;;;;;;1.77;1.00;;;14.70;91.50;;;14.94;65.83;98375.63;4735350;30;20418;-67
2023/11/02 12:46:18;;;;;;;2.07;1.20;;;14.70;91.40;;;14.92;66.00;98385.16;4751089;30;20810;-68
2023/11/02 12:48:49;;;;;;;6.90;1.70;;;14.70;91.20;;;14.88;65.83;98371.31;4731537;30;20461;-67
2023/11/02 12:51:21;;;;;;;3.33;2.00;;;14.60;91.40;;;14.86;66.85;98367.28;4736383;30;20417;-67
2023/11/02 12:53:52;;;;;;;2.40;1.10;;;14.60;91.90;;;14.74;67.43;98368.50;4736898;30;20467;-68
2023/11/02 12:56:25;;;;;;;1.50;1.40;;;14.50;92.30;;;14.89;67.12;98359.34;4737754;30;20780;-68
2023/11/02 12:59:05;;;;;;;2.30;1.70;;;14.60;92.60;;;14.78;68.01;98363.28;4737349;30;20486;-68
2023/11/02 13:01:46;;;;;;;2.17;1.40;;;14.50;93.30;;;14.83;67.34;98355.06;4738230;30;20452;-67
2023/11/02 13:04:18;;;;;;;2.67;1.37;;;14.50;92.90;;;14.91;67.47;98353.63;4741332;30;20812;-67
2023/11/02 13:07:22;;;;;;;1.57;1.47;;;14.60;93.30;;;14.74;68.12;98351.34;4734257;30;20433;-68
2023/11/02 13:10:03;;;;;;;2.33;1.73;;;14.60;93.40;;;14.76;68.94;98346.44;4735569;30;20421;-68
2023/11/02 13:12:34;;;;;;;2.97;1.10;;;14.50;94.20;;;14.56;69.13;98327.63;4746097;30;20476;-67
2023/11/02 13:19:37;;;;;;;1.80;1.70;;;14.30;95.20;;;14.44;70.93;98329.94;4749133;30;20444;-67
2023/11/02 13:44:49;;;;;;;4.07;1.87;;;14.40;97.90;;;14.55;71.57;98359.47;4753502;30;20518;-66
2023/11/02 13:47:18;;;;;;;1.90;1.53;;;14.40;97.70;;;14.60;72.24;98366.75;4747120;30;20480;-65
2023/11/02 13:49:46;;;;;;;2.77;1.80;;;14.40;98.40;;;14.57;71.72;98362.69;4745196;30;20445;-67
2023/11/02 13:52:15;;;;;;;2.30;1.57;;;14.30;98.40;;;14.57;72.26;98359.97;4753556;30;20485;-66
2023/11/02 13:54:43;;;;;;;4.43;1.60;;;14.30;98.50;;;14.60;71.74;98361.31;4748036;30;20454;-67
2023/11/02 13:57:12;;;;;;;2.17;1.60;;;14.30;98.40;;;14.67;71.26;98346.25;4755624;30;20413;-68
2023/11/02 13:59:40;;;;;;;2.33;1.80;;;14.40;98.20;;;14.61;71.92;98349.34;4754305;30;20432;-66
2023/11/02 14:02:10;;;;;;;4.53;1.43;;;14.30;98.40;;;14.68;71.58;98341.63;4754725;30;20888;-67
2023/11/02 14:04:40;;;;;;;1.97;1.57;;;14.40;98.30;;;14.66;71.21;98341.13;4749107;30;20456;-66
2023/11/02 14:07:09;;;;;;;3.97;1.30;;;14.40;97.70;;;14.53;71.80;98333.63;4753630;30;20421;-67
2023/11/02 14:09:38;;;;;;;4.70;1.50;;;14.40;97.80;;;14.58;71.77;98322.69;4753950;30;20429;-67
2023/11/02 14:12:10;;;;;;;2.00;1.80;;;14.40;98.10;;;14.54;72.27;98318.94;4754225;30;20482;-67
2023/11/02 14:14:39;;;;;;;2.60;1.37;;;14.30;98.50;;;14.61;71.86;98306.63;4752360;30;20489;-66
2023/11/02 14:17:08;;;;;;;2.67;1.57;;;14.30;98.90;;;14.71;70.86;98302.97;4752757;30;20466;-66
2023/11/02 14:19:39;;;;;;;2.60;1.87;;;14.40;98.00;;;14.58;71.44;98306.38;4748910;30;20440;-67
2023/11/02 14:22:08;;;;;;;1.93;1.50;;;14.30;97.90;;;14.58;71.49;98298.19;4748194;30;20439;-66
2023/11/02 14:24:37;;;;;;;2.60;1.50;;;14.40;98.00;;;14.42;72.47;98299.50;4763431;30;20508;-66
2023/11/02 14:27:06;;;;;;;2.60;1.50;;;14.20;98.40;;;14.37;72.84;98294.94;4744641;30;20561;-66
2023/11/02 14:29:35;;;;;;;1.87;1.47;;;;;;;14.34;72.39;98284.56;4748708;30;20445;-67
2023/11/02 14:32:04;;;;;;;3.67;1.93;;;14.20;98.70;;;14.41;72.97;98276.09;4741723;30;20429;-67
2023/11/02 14:34:33;;;;;;;2.30;1.80;;;14.20;99.20;;;14.31;72.58;98285.97;4740688;30;20482;-66
2023/11/02 14:37:03;;;;;;;6.20;1.97;;;14.10;98.80;;;14.29;72.83;98290.88;4756868;30;20895;-66
2023/11/02 14:39:34;;;;;;;4.97;2.20;;;14.10;99.20;;;14.23;73.11;98275.72;4740602;30;20457;-68
2023/11/02 14:42:04;;;;;;;1.97;1.50;;;14.10;99.30;;;14.29;73.52;98271.84;4752679;30;20466;-67
2023/11/02 14:44:33;;;;;;;2.90;1.70;;;14.10;99.80;;;14.13;73.32;98273.13;4749756;30;20530;-67
2023/11/02 14:47:02;;;;;;;3.40;1.80;;;14.00;99.50;;;14.17;73.48;98267.91;4752698;30;20485;-66
2023/11/02 14:49:32;;;;;;;2.07;1.87;;;14.00;99.70;;;14.23;73.90;98264.06;4740596;30;20455;-66
2023/11/02 14:52:06;;;;;;;1.97;1.77;;;14.00;99.90;;;14.13;73.41;98256.81;4736138;30;20466;-67
2023/11/02 14:54:35;;;;;;;4.57;3.20;;;14.00;99.90;;;14.14;73.57;98254.88;4736742;30;20482;-67
2023/11/02 14:57:05;;;;;;;2.40;2.00;;;13.90;99.90;;;14.13;73.73;98254.09;4750809;30;20813;-67
2023/11/02 14:59:34;;;;;;;2.03;1.40;;;13.90;99.90;;;14.15;73.62;98251.06;4752575;30;20437;-67
2023/11/02 15:02:03;;;;;;;3.30;2.90;;;13.90;99.90;;;14.16;74.10;98241.81;4731145;30;20431;-66
2023/11/02 15:04:32;;;;;;;2.10;1.90;;;13.90;99.90;;;14.06;74.00;98242.75;4732295;30;20544;-67
2023/11/02 15:07:01;;;;;;;1.50;1.33;;;13.90;99.90;;;14.02;74.52;98249.06;4735787;30;20413;-67
2023/11/02 15:09:31;;;;;;;2.13;1.70;;;13.80;99.90;;;14.04;74.77;98258.53;4735562;30;20417;-66
2023/11/02 15:12:00;;;;;;;2.90;1.87;;;13.90;99.90;;;14.01;74.67;98245.53;4736782;30;20506;-66
2023/11/02 15:14:28;;;;;;;2.23;1.70;;;13.80;99.90;;;13.98;75.59;98262.41;4737236;30;20521;-66
2023/11/02 15:16:56;;;;;;;2.03;1.77;;;13.80;99.90;;;13.98;74.93;98265.13;4736189;30;20440;-66
2023/11/02 15:19:25;;;;;;;3.60;2.60;;;13.80;99.90;;;13.88;75.46;98262.50;4737975;30;20494;-67
2023/11/02 15:21:53;;;;;;;2.03;1.93;;;13.70;99.90;;;13.97;75.26;98262.69;4732794;30;20482;-67
2023/11/02 15:24:25;;;;;;;4.13;2.03;;;13.70;99.90;;;13.94;75.15;98261.38;4734649;30;20445;-67
2023/11/02 15:26:55;;;;;;;1.83;1.73;;;13.70;99.90;;;13.74;76.20;98261.56;4732578;30;20527;-67
2023/11/02 15:29:23;;;;;;;3.00;2.67;;;13.60;99.90;;;13.73;76.16;98266.19;4735957;30;20446;-66
2023/11/02 15:31:52;;;;;;;6.53;2.60;;;13.60;99.90;;;13.83;76.84;98265.28;4735917;30;20549;-66
2023/11/02 15:34:20;;;;;;;5.53;1.83;;;13.60;99.90;;;13.75;76.87;98261.25;4732422;30;20482;-67
2023/11/02 15:36:49;;;;;;;3.90;2.80;;;13.60;99.90;;;13.74;76.95;98261.56;4735472;30;20463;-67
2023/11/02 15:39:18;;;;;;;2.60;2.37;;;;;;;13.63;77.65;98262.75;4735864;30;20448;-67
2023/11/02 15:41:48;;;;;;;2.13;1.87;;;13.50;99.90;;;13.51;78.84;98263.09;4733763;30;20471;-66
2023/11/02 15:44:18;;;;;;;6.97;2.67;;;13.40;99.90;;;13.67;77.94;98261.06;4735067;30;20453;-65
2023/11/02 15:46:46;;;;;;;4.23;2.67;;;13.50;99.90;;;13.78;76.94;98243.59;4735402;30;20458;-67
2023/11/02 15:49:15;;;;;;;5.10;3.40;;;13.50;99.90;;;13.71;76.68;98235.75;4735362;30;20476;-66
2023/11/02 15:51:44;;;;;;;4.47;2.00;;;13.50;99.90;;;13.61;77.65;98241.28;4735356;30;20935;-66
2023/11/02 15:54:14;;;;;;;3.20;2.30;;;13.40;99.90;;;13.56;76.72;98235.09;4734938;30;20464;-66
2023/11/02 15:56:42;;;;;;;2.93;2.13;;;13.40;99.90;;;13.52;77.12;98225.91;4740321;30;20417;-67
2023/11/02 15:59:13;;;;;;;2.57;2.17;;;13.40;99.90;;;13.58;76.82;98227.47;4737057;30;20538;-68
2023/11/02 16:01:43;;;;;;;3.87;2.03;;;13.40;99.90;;;13.71;76.75;98208.59;4736699;30;20456;-66
2023/11/02 16:04:12;;;;;;;2.97;2.47;;;13.40;99.90;;;13.61;76.97;98213.31;4734610;30;20473;-66
2023/11/02 16:06:40;;;;;;;9.20;2.60;;;13.40;99.90;;;13.58;76.97;98208.47;4735620;30;20495;-66
2023/11/02 16:09:09;;;;;;;2.43;1.73;;;13.40;99.90;;;13.55;77.00;98203.59;4735140;30;20460;-66
2023/11/02 16:11:44;;;;;;;4.47;2.93;;;13.30;99.90;;;13.54;76.94;98191.94;4734957;30;20446;-67
2023/11/02 16:14:13;;;;;;;4.13;3.10;;;13.30;99.90;;;13.59;76.82;98180.19;4733918;30;20552;-65
2023/11/02 16:16:47;;;;;;;6.27;2.30;;;13.40;99.90;;;13.55;76.65;98184.59;4734667;30;20950;-67
2023/11/02 16:19:16;;;;;;;2.83;2.40;;;13.40;99.90;;;13.60;77.13;98181.81;4734711;30;20412;-66
2023/11/02 16:21:45;;;;;;;2.80;2.00;;;13.40;99.90;;;13.53;77.34;98173.19;4738591;30;20428;-66
2023/11/02 16:24:16;;;;;;;4.37;2.30;;;13.30;99.90;;;13.59;78.06;98172.06;4734201;30;20468;-66
2023/11/02 16:26:45;;;;;;;4.43;3.30;;;13.40;99.90;;;13.55;77.23;98173.72;4736090;30;20432;-66
2023/11/02 16:29:13;;;;;;;2.70;1.97;;;13.40;99.90;;;13.56;76.96;98172.59;4737739;30;20442;-66
2023/11/02 16:31:42;;;;;;;3.20;2.90;;;13.40;99.90;;;13.49;77.85;98181.91;4730310;30;20719;-66
2023/11/02 16:34:17;;;;;;;4.27;3.53;;;13.30;99.90;;;13.44;77.60;98189.31;4734428;30;20491;-66
2023/11/02 16:36:58;;;;;;;3.13;1.90;;;13.30;99.90;;;13.39;79.53;98202.94;4733519;30;20424;-66
2023/11/02 16:39:26;;;;;;;2.83;2.37;;;13.20;99.90;;;13.36;80.87;98217.09;4734492;30;20421;-66
2023/11/02 16:41:55;;;;;;;3.20;2.07;;;13.20;99.90;;;13.38;81.48;98218.41;4734474;30;20432;-66
2023/11/02 16:44:24;;;;;;;2.83;2.63;;;13.20;99.90;;;13.30;82.32;98229.91;4734418;30;20460;-66
2023/11/02 16:46:52;;;;;;;4.83;2.70;;;13.10;99.90;;;13.27;84.78;98232.34;4732034;30;20492;-66
2023/11/02 16:49:23;;;;;;;3.60;3.17;;;;;;;13.12;85.40;98232.50;4748172;30;20505;-67
2023/11/02 16:51:52;;;;;;;3.27;1.80;;;;;;;13.01;86.63;98220.84;4731831;30;20418;-67
2023/11/02 16:54:26;;;;;;;4.53;3.17;;;;;;;12.96;87.75;98240.72;4732047;30;20468;-66
2023/11/02 16:56:54;;;;;;;2.50;1.63;;;12.80;99.90;;;12.89;88.48;98239.38;4734224;30;20490;-66
2023/11/02 16:59:23;;;;;;;3.30;2.27;;;12.80;99.90;;;12.90;88.51;98230.16;4734904;30;20502;-66
2023/11/02 17:01:52;;;;;;;3.17;2.15;;;12.70;99.90;;;12.90;88.44;98216.59;4733836;30;20983;-66
2023/11/02 17:04:22;;;;;;;3.13;2.13;;;12.70;99.90;;;12.77;90.91;98217.22;4728464;30;20281;-67
2023/11/02 17:06:51;;;;;;;4.97;2.20;;;12.60;99.90;;;12.89;89.03;98217.66;4735312;30;20425;-66
2023/11/02 17:09:20;;;;;;;2.60;1.90;;;12.70;99.90;;;12.88;89.50;98235.84;4734193;30;20440;-66
2023/11/02 17:11:48;;;;;;;7.57;3.33;;;12.70;99.90;;;12.78;89.94;98229.69;4734148;30;20447;-66
2023/11/02 17:14:16;;;;;;;4.70;2.60;;;12.60;99.90;;;12.79;91.21;98234.00;4733457;30;20453;-66
2023/11/02 17:16:45;;;;;;;3.10;2.40;;;12.60;99.90;;;12.68;92.89;98246.03;4733334;30;20457;-66
2023/11/02 17:19:13;;;;;;;2.73;2.47;;;12.50;99.90;;;12.69;93.64;98256.59;4733993;30;20455;-67
2023/11/02 17:21:43;;;;;;;2.43;2.23;;;12.50;99.90;;;12.63;95.10;98244.94;4734498;30;20440;-66
2023/11/02 17:24:14;;;;;;;2.80;2.00;;;12.50;99.90;;;12.51;96.44;98246.38;4731929;30;21009;-67
2023/11/02 17:26:42;;;;;;;6.07;2.80;;;12.40;99.90;;;12.46;98.00;98249.94;4734228;30;20465;-66
2023/11/02 17:29:11;;;;;;;3.87;2.60;;;12.30;99.90;;;12.45;99.22;98250.19;4733703;30;20433;-66
2023/11/02 17:31:39;;;;;;;6.90;2.87;;;;;;;12.31;99.46;98243.75;4733984;30;20429;-65
2023/11/02 17:34:08;;;;;;;3.03;2.83;;;;;;;12.27;100.00;98238.09;4733578;30;20463;-66
2023/11/02 17:36:36;;;;;;;2.23;2.03;;;12.20;99.90;;;12.27;100.00;98232.66;4733961;30;20781;-67
2023/11/02 17:39:08;;;;;;;4.17;2.57;;;;;;;12.15;100.00;98229.47;4733875;30;20470;-66
2023/11/02 17:41:37;;;;;;;2.63;2.37;;;;;;;12.07;100.00;98238.97;4729789;30;20963;-66
2023/11/02 17:44:06;;;;;;;3.33;2.10;;;12.00;99.90;;;12.07;100.00;98233.53;4733596;30;21019;-67
2023/11/02 17:46:35;;;;;;;2.87;2.60;;;;;;;11.97;100.00;98228.16;4749275;30;20439;-67
2023/11/02 17:49:04;;;;;;;3.83;2.67;;;;;;;12.02;100.00;98219.19;4732506;30;20507;-65
2023/11/02 17:51:35;;;;;;;3.10;2.50;;;;;;;11.91;100.00;98214.91;4733134;30;21045;-66
2023/11/02 17:54:06;;;;;;;2.80;2.30;;;;;;;11.91;100.00;98212.97;4746144;30;20482;-66
2023/11/02 17:56:41;;;;;;;4.60;3.20;;;;;;;11.88;100.00;98207.31;4733569;30;20530;-66
2023/11/02 17:59:10;;;;;;;3.30;3.00;;;;;;;11.88;100.00;98210.03;4734386;30;20935;-66
2023/11/02 18:01:39;;;;;;;3.53;2.17;;;;;;;11.85;100.00;98208.69;4733767;30;20896;-66
2023/11/02 18:04:08;;;;;;;6.20;3.37;;;;;;;11.70;100.00;98209.50;4733286;30;20449;-66
2023/11/02 18:06:36;;;;;;;9.77;3.23;;;11.60;99.90;;;11.63;100.00;98200.84;4733498;30;20931;-66
2023/11/02 18:09:06;;;;;;;4.43;3.03;;;11.60;1.00;;;11.69;100.00;98217.91;4734501;30;20405;-67
2023/11/02 18:11:35;;;;;;;5.23;2.50;;;11.50;1.00;;;11.70;100.00;98223.03;4734046;30;20457;-67
2023/11/02 18:14:03;;;;;;;5.37;3.40;;;11.50;11.00;;;11.64;100.00;98213.31;4738115;30;20506;-66
2023/11/02 18:16:32;;;;;;;5.17;4.17;;;11.50;91.70;;;11.59;100.00;98207.91;4735479;30;20421;-65
2023/11/02 18:19:00;;;;;;;5.63;3.40;;;11.50;1.00;;;11.66;100.00;98213.03;4734423;30;20807;-65
2023/11/02 18:21:32;;;;;;;6.33;3.70;;;11.50;1.00;;;11.58;100.00;98206.25;4733569;30;20445;-65
2023/11/02 18:24:01;;;;;;;4.37;2.40;;;11.40;99.90;;;11.67;100.00;98201.91;4733461;30;20508;-66
2023/11/02 18:26:31;;;;;;;2.70;2.43;;;11.50;99.90;;;11.68;100.00;98208.94;4734694;30;20951;-66
2023/11/02 18:29:00;;;;;;;14.13;4.00;;;11.50;99.90;;;11.71;100.00;98215.75;4736894;30;20417;-65
2023/11/02 18:31:30;;;;;;;4.83;3.40;;;11.50;99.90;;;11.61;100.00;98219.28;4735888;30;20924;-66
2023/11/02 18:33:59;;;;;;;4.53;2.97;;;11.50;99.90;;;11.62;100.00;98229.00;4750229;30;20486;-66
2023/11/02 18:36:28;;;;;;;4.20;3.43;;;11.40;99.90;;;11.53;100.00;98213.56;4749836;30;20441;-66
2023/11/02 18:38:57;;;;;;;5.03;3.03;;;11.40;99.90;;;11.62;100.00;98204.63;4749950;30;20491;-67
2023/11/02 18:41:25;;;;;;;5.77;3.53;;;11.40;99.90;;;11.55;100.00;98198.69;4736702;30;20446;-66
2023/11/02 18:43:55;;;;;;;3.30;2.87;;;11.40;99.90;;;11.44;100.00;98207.09;4736315;30;20473;-66
2023/11/02 18:46:23;;;;;;;7.10;4.00;;;11.30;99.90;;;11.40;100.00;98216.84;4736137;30;20905;-67
2023/11/02 18:48:52;;;;;;;3.37;2.60;;;11.30;99.90;;;11.45;100.00;98220.38;4736302;30;20421;-67
2023/11/02 18:51:21;;;;;;;8.57;3.80;;;11.30;99.90;;;11.38;100.00;98225.25;4734520;30;20446;-67
2023/11/02 18:53:49;;;;;;;4.63;3.07;;;11.20;99.90;;;11.48;100.00;98213.59;4736043;30;20452;-67
2023/11/02 18:56:18;;;;;;;4.43;3.03;;;11.30;99.90;;;11.46;100.00;98216.59;4736092;30;20480;-68
2023/11/02 18:58:46;;;;;;;5.20;3.83;;;11.30;99.90;;;11.50;100.00;98212.25;4736043;30;20436;-67
2023/11/02 19:01:21;;;;;;;5.43;3.10;;;11.40;99.90;;;11.40;100.00;98217.66;4736117;30;20419;-67
2023/11/02 19:03:50;;;;;;;8.13;3.40;;;11.30;99.90;;;11.40;100.00;98220.38;4735880;30;20520;-66
2023/11/02 19:06:18;;;;;;;4.77;3.73;;;11.30;99.90;;;11.47;100.00;98215.50;4736220;30;20964;-67
2023/11/02 19:08:49;;;;;;;4.20;3.67;;;11.30;99.90;;;11.58;100.00;98225.22;4735667;30;20425;-69
2023/11/02 19:11:18;;;;;;;5.67;2.83;;;11.30;99.90;;;11.40;100.00;98228.50;4735874;30;20453;-68
2023/11/02 19:13:48;;;;;;;4.60;3.80;;;11.30;99.90;;;11.50;100.00;98222.25;4738172;30;20519;-66
2023/11/02 19:16:17;;;;;;;4.27;3.87;;;11.30;99.90;;;11.42;100.00;98226.34;4735777;30;20449;-67
2023/11/02 19:18:47;;;;;;;6.27;4.47;;;11.30;99.90;;;11.34;100.00;98216.03;4730546;30;20447;-68
2023/11/02 19:21:15;;;;;;;8.20;4.13;;;11.20;99.90;;;11.37;100.00;98220.94;4735345;30;20421;-67
2023/11/02 19:23:45;;;;;;;4.70;3.27;;;11.20;99.90;;;11.58;100.00;98224.41;4734833;30;20448;-66
2023/11/02 19:26:16;;;;;;;6.00;5.10;;;11.30;99.90;;;11.43;100.00;98222.53;4733874;30;20485;-66
2023/11/02 19:28:45;;;;;;;5.03;3.73;;;11.30;99.90;;;11.38;100.00;98230.66;4735398;30;20864;-67
2023/11/02 19:31:13;;;;;;;4.33;3.30;;;11.20;99.90;;;11.30;100.00;98233.91;4735431;30;20780;-68
2023/11/02 19:33:41;;;;;;;5.70;4.40;;;11.20;99.90;;;11.36;100.00;98243.66;4735329;30;20444;-66
2023/11/02 19:36:11;;;;;;;7.83;4.50;;;11.20;99.90;;;11.31;100.00;98238.25;4735166;30;20493;-66
2023/11/02 19:38:40;;;;;;;6.13;3.50;;;11.20;99.90;;;11.48;100.00;98238.78;4734077;30;20454;-67
2023/11/02 19:41:08;;;;;;;6.30;4.13;;;11.20;99.90;;;11.39;100.00;98228.75;4735080;30;20942;-67
2023/11/02 19:43:37;;;;;;;5.10;3.43;;;11.20;99.90;;;11.38;100.00;98230.66;4735246;30;20507;-67
2023/11/02 19:46:09;;;;;;;6.60;4.33;;;11.20;99.90;;;11.40;100.00;98250.16;4734498;30;20450;-67
2023/11/02 19:48:39;;;;;;;7.23;4.13;;;11.20;99.90;;;11.43;100.00;98227.94;4735174;30;20442;-67
2023/11/02 19:51:13;;;;;;;5.63;3.70;;;11.30;99.90;;;11.45;100.00;98225.78;4741140;30;20954;-67
2023/11/02 19:53:42;;;;;;;10.17;5.57;;;11.30;99.90;;;11.34;100.00;98219.56;4731052;30;20540;-67
2023/11/02 19:56:11;;;;;;;7.10;4.27;;;11.20;99.90;;;11.27;100.00;98204.69;4736593;30;20468;-67
2023/11/02 19:58:42;;;;;;;5.90;3.67;;;11.20;99.90;;;11.42;100.00;98193.84;4734937;30;20417;-67
2023/11/02 20:01:10;;;;;;;4.53;3.50;;;11.20;99.90;;;11.28;100.00;98181.94;4734900;30;20446;-67
2023/11/02 20:03:41;;;;;;;4.93;3.77;;;11.10;99.90;;;11.32;100.00;98174.91;4748467;30;20453;-67
2023/11/02 20:06:10;;;;;;;4.73;3.37;;;11.10;99.90;;;11.38;100.00;98184.63;4736053;30;20982;-67
2023/11/02 20:08:41;;;;;;;4.80;3.47;;;11.20;99.90;;;11.27;100.00;98183.03;4734080;30;20434;-67
2023/11/02 20:11:09;;;;;;;10.70;4.40;;;11.10;99.90;;;11.31;100.00;98192.22;4734426;30;20946;-67
2023/11/02 20:13:38;;;;;;;6.60;4.23;;;11.10;99.90;;;11.27;100.00;98185.75;4734715;30;20552;-68
2023/11/02 20:16:07;;;;;;;5.80;4.27;;;11.10;99.90;;;11.34;100.00;98175.44;4734988;30;20797;-68
2023/11/02 20:18:35;;;;;;;7.30;4.20;;;11.20;99.90;;;11.31;100.00;98170.56;4735256;30;20478;-67
2023/11/02 20:21:06;;;;;;;6.27;4.10;;;11.10;99.90;;;11.33;100.00;98161.06;4734612;30;20425;-67
2023/11/02 20:23:34;;;;;;;5.53;3.60;;;11.10;99.90;;;11.21;100.00;98176.81;4734672;30;20979;-67
2023/11/02 20:26:04;;;;;;;8.47;3.97;;;11.10;99.90;;;11.15;100.00;98183.31;4734300;30;20458;-67
2023/11/02 20:28:33;;;;;;;7.07;4.57;;;11.00;99.90;;;11.24;100.00;98180.84;4734896;30;20475;-68
2023/11/02 20:31:01;;;;;;;8.43;4.40;;;11.10;99.90;;;11.21;100.00;98178.69;4733535;30;20778;-67
2023/11/02 20:33:29;;;;;;;6.53;3.83;;;11.10;99.90;;;11.25;100.00;98177.06;4734900;30;20470;-67
2023/11/02 20:36:01;;;;;;;5.00;4.00;;;11.10;99.90;;;11.22;100.00;98180.31;4734861;30;20453;-67
2023/11/02 20:38:29;;;;;;;6.20;4.90;;;11.10;99.90;;;11.32;100.00;98183.03;4738265;30;20468;-67
2023/11/02 20:40:58;;;;;;;7.00;5.77;;;11.10;99.90;;;11.14;100.00;98176.25;4734878;30;20520;-68
2023/11/02 20:43:28;;;;;;;5.07;4.57;;;11.10;99.90;;;11.13;100.00;98173.84;4733280;30;20441;-67
2023/11/02 20:45:56;;;;;;;7.33;4.33;;;11.00;99.90;;;11.23;100.00;98173.84;4736197;30;20442;-67
2023/11/02 20:48:30;;;;;;;7.87;4.00;;;11.00;99.90;;;11.17;100.00;98175.72;4736347;30;20462;-67
2023/11/02 20:50:59;;;;;;;5.10;3.73;;;11.00;99.90;;;11.21;100.00;98179.50;4735536;30;20447;-68
2023/11/02 20:53:28;;;;;;;5.70;4.30;;;11.00;99.90;;;11.15;100.00;98156.25;4736602;30;20520;-68
2023/11/02 20:55:57;;;;;;;5.50;4.77;;;11.00;99.90;;;11.17;100.00;98153.28;4736201;30;20482;-66
2023/11/02 20:58:25;;;;;;;7.27;4.67;;;11.00;99.90;;;11.15;100.00;98139.19;4736643;30;20417;-67
2023/11/02 21:00:56;;;;;;;5.07;3.33;;;11.00;99.90;;;11.21;100.00;98143.50;4738303;30;20443;-67
2023/11/02 21:03:26;;;;;;;6.10;4.73;;;11.00;99.90;;;11.24;100.00;98132.94;4736357;30;20804;-67
2023/11/02 21:05:54;;;;;;;5.23;3.50;;;11.00;99.90;;;11.24;100.00;98143.78;4738679;30;21220;-66
2023/11/02 21:08:23;;;;;;;8.17;4.57;;;11.10;99.90;;;11.26;100.00;98140.81;4738782;30;20805;-69
2023/11/02 21:10:52;;;;;;;6.70;4.23;;;11.10;99.90;;;11.15;100.00;98139.19;4740882;30;20483;-67
2023/11/02 21:13:21;;;;;;;5.50;4.70;;;11.00;99.90;;;11.10;100.00;98141.91;4737068;30;20908;-68
2023/11/02 21:15:51;;;;;;;5.27;3.63;;;11.00;99.90;;;11.33;100.00;98146.72;4737789;30;20843;-68
2023/11/02 21:18:23;;;;;;;6.23;4.10;;;11.10;99.90;;;11.38;100.00;98152.13;4734275;30;20530;-67
2023/11/02 21:20:52;;;;;;;6.50;4.20;;;11.20;99.90;;;11.21;100.00;98157.03;4734801;30;20458;-67
2023/11/02 21:23:24;;;;;;;5.13;4.03;;;11.10;99.90;;;11.20;100.00;98152.72;4734508;30;20524;-67
2023/11/02 21:25:53;;;;;;;6.10;4.30;;;11.10;99.90;;;11.21;100.00;98155.16;4734688;30;20925;-68
2023/11/02 21:28:21;;;;;;;5.07;4.30;;;11.10;99.90;;;11.16;100.00;98152.44;4733944;30;20521;-67
2023/11/02 21:30:50;;;;;;;10.00;4.27;;;11.10;99.90;;;11.27;100.00;98153.25;4734244;30;20516;-66